Weather at Salt Lake City International Airport

Public forecast

Using degrees Fahrenheit for public forecast. Weather courtesy of forecast.io.

Current aviation weather report (METAR) for Salt Lake City International Airport

Retrieved 2021/04/17 14:54 UTC (9 minutes ago):

KSLC 171454Z 11016KT 10SM FEW065 FEW080 07/M08 A3020 RMK AO2 SLP216 T00671078 51009

Aviation forecast (TAF) for Salt Lake City International Airport

Retrieved 2021/04/17 12:22 UTC (3 hours ago):

TAF KSLC 171120Z 1712/1818 10007KT P6SM SCT080 FM171500 10010G20KT P6SM SKC FM172100 35012G22KT P6SM FEW250 FM180300 15005KT P6SM SKC